FNSOFNUB

Guest
Details From FNSO - SOYO
To FNUB - LUBANGO
Flight Number -
Tags generated
Created
Modified
Stats Distance 537 nm / 995 km
Max Altitude 35,000 ft / 10,668 m
Waypoints 8
Social Downloads 1
Likes 0
Share VATSIM

Download

Looking for another format? Having issues loading an existing format? Contact us
Advertisement - Login to hide

Notes

Basic altitude profile: - Ascent Rate: 2500ft/min - Ascent Speed: 250kts - Cruise Altitude: 35000ft - Cruise Speed: 420kts - Descent Rate: 1500ft/min - Descent Speed: 250kts Options: - Use NATs: yes - Use PACOTS: yes - Use low airways: yes - Use high airways: yes

Route

FNSO AVUTA R987F IMLEX UR987F VNA UJ614F BG J614F VUB FNUB

ID Type Via Altitude Latitude Longitude Leg Dist Tot Dist Heading (true) Name
O FNSO APT - 0 ft / 0 m -6.14109˚ 12.37177˚ - 0 nm - SOYO
AVUTA FIX - 17,800 ft / 5,425 m -6.93167˚ 12.62667˚ 49 nm 49 nm 162° / 162° -
IMLEX FIX R987F (AWY-LO) 23,500 ft / 7,163 m -7.56500˚ 12.83333˚ 39 nm 89 nm 162° / 162° -
VNA VOR UR987F (AWY-HI) 35,000 ft / 10,668 m -8.84548˚ 13.24748˚ 80 nm 170 nm 162° / 162° LUANDA VOR-DME
LIRAM FIX UJ614F (AWY-HI) 35,000 ft / 10,668 m -10.83333˚ 13.33000˚ 119 nm 290 nm 178° / 178° -
BG NDB UJ614F (AWY-HI) 29,100 ft / 8,870 m -12.60813˚ 13.40540˚ 106 nm 396 nm 178° / 178° BENGUELA NDB
VUB VOR J614F (AWY-LO) 11,000 ft / 3,353 m -14.91667˚ 13.60000˚ 139 nm 535 nm 175° / 175° LUBANGO VOR-DME
O FNUB APT - 0 ft / 0 m -14.92473˚ 13.57502˚ 1 nm 537 nm 252° / 252° LUBANGO

Altitude Profile

Advertisement - Login to hide

Weather


0- 5 10 15 20 25 30 35+ Temperature / ° C

Clouds and Precipitation
Forecast for 2017-12-12 18:00 UTC. Updated an hour ago

Ground ~20,000 ft ~40,000 ft Winds

FNSO

Details ICAO FNSO (SZA)
Name SOYO
Region Angola
Timezone Africa/Luanda (UTC+1.0)
Stats Elevation 15 ft / 5 m (AMSL)
Location -6.141087° 12.371766°
Runways 1
Magnetic Variation 2.804° W

METAR

FNSO 121400Z 22007KT 9999 BKN021 SCT090 ///// Q1010

Decode

TAF

TAF FNSO 121100Z 1212/1224 20010KT 9999 BKN020 OVC050 TEMPO 1216/1224 VRB03KT BKN040

Decode

Departure Runways

ID Width Length Bearing (true) Bearing (mag) Surface Threshold Offset Overrun Length
07 174 ft / 53 m 6,865 ft / 2,092 m 55.11° 57.91° Asphalt 0 ft / 0 m 0 ft / 0 m
25 174 ft / 53 m 6,865 ft / 2,092 m 235.11° 237.91° Asphalt 0 ft / 0 m 0 ft / 0 m

FNUB

Details ICAO FNUB (SDD)
Name LUBANGO
Region Angola
Timezone Africa/Luanda (UTC+1.0)
Stats Elevation 5,778 ft / 1,761 m (AMSL)
Location -14.924734° 13.575022°
Runways 1
Magnetic Variation 6.442° W

METAR

Not found

TAF

TAF FNUB 121100Z 1212/1224 09010KT 9999 SCT020 PROB30 TEMPO 1214/1218 8000 -RA BKN018 TEMPO 1218/1224 27010KT

Decode

Destination Runways

ID Width Length Bearing (true) Bearing (mag) Surface Threshold Offset Overrun Length
10 148 ft / 45 m 9,639 ft / 2,938 m 88.44° 94.88° Asphalt 0 ft / 0 m 165 ft / 50 m
28 148 ft / 45 m 9,639 ft / 2,938 m 268.44° 274.88° Asphalt 0 ft / 0 m 165 ft / 50 m